sensor_id;sensor_type;location;lat;lon;timestamp;temperature;humidity
21348;DHT22;66030;53.582;9.746;2023-02-05T00:01:57;2.50;99.90
21348;DHT22;66030;53.582;9.746;2023-02-05T00:04:27;2.50;99.90
21348;DHT22;66030;53.582;9.746;2023-02-05T00:06:55;2.40;99.90
21348;DHT22;66030;53.582;9.746;2023-02-05T00:09:22;2.50;99.90
21348;DHT22;66030;53.582;9.746;2023-02-05T00:11:50;2.40;99.90
21348;DHT22;66030;53.582;9.746;2023-02-05T00:14:18;2.40;99.90
21348;DHT22;66030;53.582;9.746;2023-02-05T00:16:46;2.50;99.90
21348;DHT22;66030;53.582;9.746;2023-02-05T00:19:14;2.40;99.90
21348;DHT22;66030;53.582;9.746;2023-02-05T00:21:43;2.50;99.90
21348;DHT22;66030;53.582;9.746;2023-02-05T00:24:11;2.40;99.90
21348;DHT22;66030;53.582;9.746;2023-02-05T00:26:40;2.40;99.90
21348;DHT22;66030;53.582;9.746;2023-02-05T00:29:08;2.40;99.90
21348;DHT22;66030;53.582;9.746;2023-02-05T00:31:36;2.50;99.90
21348;DHT22;66030;53.582;9.746;2023-02-05T00:34:04;2.50;99.90
21348;DHT22;66030;53.582;9.746;2023-02-05T00:36:32;2.30;99.90
21348;DHT22;66030;53.582;9.746;2023-02-05T00:39:01;2.40;99.90
21348;DHT22;66030;53.582;9.746;2023-02-05T00:41:29;2.20;99.90
21348;DHT22;66030;53.582;9.746;2023-02-05T00:43:56;2.30;99.90
21348;DHT22;66030;53.582;9.746;2023-02-05T00:46:24;2.30;99.90
21348;DHT22;66030;53.582;9.746;2023-02-05T00:48:52;2.20;99.90
21348;DHT22;66030;53.582;9.746;2023-02-05T00:51:20;2.30;99.90
21348;DHT22;66030;53.582;9.746;2023-02-05T00:53:48;2.30;99.90
21348;DHT22;66030;53.582;9.746;2023-02-05T00:56:17;2.30;99.90
21348;DHT22;66030;53.582;9.746;2023-02-05T00:58:45;2.20;99.90
21348;DHT22;66030;53.582;9.746;2023-02-05T01:01:15;2.20;99.90
21348;DHT22;66030;53.582;9.746;2023-02-05T01:03:43;2.30;99.90
21348;DHT22;66030;53.582;9.746;2023-02-05T01:06:11;2.30;99.90
21348;DHT22;66030;53.582;9.746;2023-02-05T01:08:39;2.30;99.90
21348;DHT22;66030;53.582;9.746;2023-02-05T01:11:08;2.20;99.90
21348;DHT22;66030;53.582;9.746;2023-02-05T01:13:38;2.20;99.90
21348;DHT22;66030;53.582;9.746;2023-02-05T01:16:06;2.20;99.90
21348;DHT22;66030;53.582;9.746;2023-02-05T01:18:35;2.20;99.90
21348;DHT22;66030;53.582;9.746;2023-02-05T01:21:03;2.20;99.90
21348;DHT22;66030;53.582;9.746;2023-02-05T01:23:31;2.20;99.90
21348;DHT22;66030;53.582;9.746;2023-02-05T01:25:59;2.20;99.90
21348;DHT22;66030;53.582;9.746;2023-02-05T01:28:27;2.10;99.90
21348;DHT22;66030;53.582;9.746;2023-02-05T01:30:56;2.00;99.90
21348;DHT22;66030;53.582;9.746;2023-02-05T01:33:24;2.10;99.90
21348;DHT22;66030;53.582;9.746;2023-02-05T01:35:52;2.10;99.90
21348;DHT22;66030;53.582;9.746;2023-02-05T01:38:20;2.00;99.90
21348;DHT22;66030;53.582;9.746;2023-02-05T01:40:48;2.00;99.90
21348;DHT22;66030;53.582;9.746;2023-02-05T01:43:16;2.00;99.90
21348;DHT22;66030;53.582;9.746;2023-02-05T01:46:10;1.90;99.90
21348;DHT22;66030;53.582;9.746;2023-02-05T01:48:42;1.90;99.90
21348;DHT22;66030;53.582;9.746;2023-02-05T01:51:13;1.90;99.90
21348;DHT22;66030;53.582;9.746;2023-02-05T01:53:42;1.90;99.90
21348;DHT22;66030;53.582;9.746;2023-02-05T01:56:13;1.90;99.90
21348;DHT22;66030;53.582;9.746;2023-02-05T01:58:46;1.80;99.90
21348;DHT22;66030;53.582;9.746;2023-02-05T02:01:16;1.80;99.90
21348;DHT22;66030;53.582;9.746;2023-02-05T02:03:44;1.80;99.90
21348;DHT22;66030;53.582;9.746;2023-02-05T02:06:12;1.80;99.90
21348;DHT22;66030;53.582;9.746;2023-02-05T02:08:40;1.80;99.90
21348;DHT22;66030;53.582;9.746;2023-02-05T02:11:09;1.70;99.90
21348;DHT22;66030;53.582;9.746;2023-02-05T02:13:38;1.60;99.90
21348;DHT22;66030;53.582;9.746;2023-02-05T02:16:07;1.70;99.90
21348;DHT22;66030;53.582;9.746;2023-02-05T02:18:37;1.70;99.90
21348;DHT22;66030;53.582;9.746;2023-02-05T02:24:29;1.70;99.90
21348;DHT22;66030;53.582;9.746;2023-02-05T02:29:57;1.80;99.90
21348;DHT22;66030;53.582;9.746;2023-02-05T02:32:33;1.80;99.90
21348;DHT22;66030;53.582;9.746;2023-02-05T02:35:06;1.80;99.90
21348;DHT22;66030;53.582;9.746;2023-02-05T02:37:39;1.90;99.90
21348;DHT22;66030;53.582;9.746;2023-02-05T02:40:12;1.90;99.90
21348;DHT22;66030;53.582;9.746;2023-02-05T02:42:46;1.90;99.90
21348;DHT22;66030;53.582;9.746;2023-02-05T02:45:19;1.80;99.90
21348;DHT22;66030;53.582;9.746;2023-02-05T02:47:52;1.90;99.90
21348;DHT22;66030;53.582;9.746;2023-02-05T02:50:24;1.90;99.90
21348;DHT22;66030;53.582;9.746;2023-02-05T02:53:02;1.80;99.90
21348;DHT22;66030;53.582;9.746;2023-02-05T02:55:34;1.80;99.90
21348;DHT22;66030;53.582;9.746;2023-02-05T02:58:07;1.90;99.90
21348;DHT22;66030;53.582;9.746;2023-02-05T03:00:38;2.00;99.90
21348;DHT22;66030;53.582;9.746;2023-02-05T03:03:09;1.90;99.90
21348;DHT22;66030;53.582;9.746;2023-02-05T03:05:39;2.00;99.90
21348;DHT22;66030;53.582;9.746;2023-02-05T03:08:11;2.00;99.90
21348;DHT22;66030;53.582;9.746;2023-02-05T03:10:45;1.80;99.90
21348;DHT22;66030;53.582;9.746;2023-02-05T03:13:14;1.90;99.90
21348;DHT22;66030;53.582;9.746;2023-02-05T03:15:43;1.90;99.90
21348;DHT22;66030;53.582;9.746;2023-02-05T03:18:13;2.00;99.90
21348;DHT22;66030;53.582;9.746;2023-02-05T03:20:45;2.10;99.90
21348;DHT22;66030;53.582;9.746;2023-02-05T03:23:14;2.00;99.90
21348;DHT22;66030;53.582;9.746;2023-02-05T03:25:41;2.00;99.90
21348;DHT22;66030;53.582;9.746;2023-02-05T03:28:10;2.00;99.90
21348;DHT22;66030;53.582;9.746;2023-02-05T03:30:47;2.00;99.90
21348;DHT22;66030;53.582;9.746;2023-02-05T03:33:33;2.00;99.90
21348;DHT22;66030;53.582;9.746;2023-02-05T03:36:08;2.10;99.90
21348;DHT22;66030;53.582;9.746;2023-02-05T03:38:50;2.00;99.90
21348;DHT22;66030;53.582;9.746;2023-02-05T03:41:26;2.10;99.90
21348;DHT22;66030;53.582;9.746;2023-02-05T03:44:26;2.20;99.90
21348;DHT22;66030;53.582;9.746;2023-02-05T03:47:01;2.30;99.90
21348;DHT22;66030;53.582;9.746;2023-02-05T03:49:40;2.40;99.90
21348;DHT22;66030;53.582;9.746;2023-02-05T03:52:12;2.40;99.90
21348;DHT22;66030;53.582;9.746;2023-02-05T03:54:45;2.40;99.90
21348;DHT22;66030;53.582;9.746;2023-02-05T03:57:21;2.30;99.90
21348;DHT22;66030;53.582;9.746;2023-02-05T03:59:51;2.30;99.90
21348;DHT22;66030;53.582;9.746;2023-02-05T04:02:21;2.30;99.90
21348;DHT22;66030;53.582;9.746;2023-02-05T04:04:49;2.30;99.90
21348;DHT22;66030;53.582;9.746;2023-02-05T04:07:17;2.40;99.90
21348;DHT22;66030;53.582;9.746;2023-02-05T04:09:45;2.50;99.90
21348;DHT22;66030;53.582;9.746;2023-02-05T04:12:13;2.40;99.90
21348;DHT22;66030;53.582;9.746;2023-02-05T04:14:40;2.50;99.90
21348;DHT22;66030;53.582;9.746;2023-02-05T04:17:09;2.50;99.90
21348;DHT22;66030;53.582;9.746;2023-02-05T04:19:38;2.60;99.90
21348;DHT22;66030;53.582;9.746;2023-02-05T04:22:07;2.60;99.90
21348;DHT22;66030;53.582;9.746;2023-02-05T04:24:34;2.60;99.90
21348;DHT22;66030;53.582;9.746;2023-02-05T04:27:02;2.60;99.90
21348;DHT22;66030;53.582;9.746;2023-02-05T04:29:30;2.70;99.90
21348;DHT22;66030;53.582;9.746;2023-02-05T04:31:58;2.60;99.90
21348;DHT22;66030;53.582;9.746;2023-02-05T04:34:26;2.60;99.90
21348;DHT22;66030;53.582;9.746;2023-02-05T04:36:55;2.50;99.90
21348;DHT22;66030;53.582;9.746;2023-02-05T04:39:23;2.60;99.90
21348;DHT22;66030;53.582;9.746;2023-02-05T04:41:50;2.60;99.90
21348;DHT22;66030;53.582;9.746;2023-02-05T04:44:18;2.50;99.90
21348;DHT22;66030;53.582;9.746;2023-02-05T04:46:46;2.50;99.90
21348;DHT22;66030;53.582;9.746;2023-02-05T04:49:14;2.50;99.90
21348;DHT22;66030;53.582;9.746;2023-02-05T04:51:42;2.50;99.90
21348;DHT22;66030;53.582;9.746;2023-02-05T04:54:11;2.40;99.90
21348;DHT22;66030;53.582;9.746;2023-02-05T04:56:39;2.40;99.90
21348;DHT22;66030;53.582;9.746;2023-02-05T04:59:06;2.50;99.90
21348;DHT22;66030;53.582;9.746;2023-02-05T05:01:34;2.40;99.90
21348;DHT22;66030;53.582;9.746;2023-02-05T05:04:02;2.50;99.90
21348;DHT22;66030;53.582;9.746;2023-02-05T05:06:30;2.40;99.90
21348;DHT22;66030;53.582;9.746;2023-02-05T05:08:58;2.40;99.90
21348;DHT22;66030;53.582;9.746;2023-02-05T05:11:27;2.40;99.90
21348;DHT22;66030;53.582;9.746;2023-02-05T05:13:55;2.40;99.90
21348;DHT22;66030;53.582;9.746;2023-02-05T05:16:23;2.40;99.90
21348;DHT22;66030;53.582;9.746;2023-02-05T05:18:51;2.40;99.90
21348;DHT22;66030;53.582;9.746;2023-02-05T05:21:19;2.50;99.90
21348;DHT22;66030;53.582;9.746;2023-02-05T05:23:47;2.60;99.90
21348;DHT22;66030;53.582;9.746;2023-02-05T05:26:15;2.60;99.90
21348;DHT22;66030;53.582;9.746;2023-02-05T05:28:44;2.50;99.90
21348;DHT22;66030;53.582;9.746;2023-02-05T05:31:14;2.50;99.90
21348;DHT22;66030;53.582;9.746;2023-02-05T05:33:43;2.60;99.90
21348;DHT22;66030;53.582;9.746;2023-02-05T05:36:11;2.60;99.90
21348;DHT22;66030;53.582;9.746;2023-02-05T05:38:39;2.60;99.90
21348;DHT22;66030;53.582;9.746;2023-02-05T05:41:07;2.60;99.90
21348;DHT22;66030;53.582;9.746;2023-02-05T05:43:55;2.60;99.90
21348;DHT22;66030;53.582;9.746;2023-02-05T05:46:24;2.50;99.90
21348;DHT22;66030;53.582;9.746;2023-02-05T05:48:53;2.50;99.90
21348;DHT22;66030;53.582;9.746;2023-02-05T05:51:23;2.70;99.90
21348;DHT22;66030;53.582;9.746;2023-02-05T05:53:52;2.70;99.90
21348;DHT22;66030;53.582;9.746;2023-02-05T05:56:20;2.50;99.90
21348;DHT22;66030;53.582;9.746;2023-02-05T05:58:49;2.60;99.90
21348;DHT22;66030;53.582;9.746;2023-02-05T06:01:19;2.60;99.90
21348;DHT22;66030;53.582;9.746;2023-02-05T06:03:48;2.70;99.90
21348;DHT22;66030;53.582;9.746;2023-02-05T06:06:16;2.60;99.90
21348;DHT22;66030;53.582;9.746;2023-02-05T06:08:44;2.60;99.90
21348;DHT22;66030;53.582;9.746;2023-02-05T06:11:12;2.60;99.90
21348;DHT22;66030;53.582;9.746;2023-02-05T06:13:40;2.60;99.90
21348;DHT22;66030;53.582;9.746;2023-02-05T06:16:08;2.60;99.90
21348;DHT22;66030;53.582;9.746;2023-02-05T06:18:37;2.60;99.90
21348;DHT22;66030;53.582;9.746;2023-02-05T06:21:05;2.60;99.90
21348;DHT22;66030;53.582;9.746;2023-02-05T06:23:33;2.60;99.90
21348;DHT22;66030;53.582;9.746;2023-02-05T06:26:01;2.60;99.90
21348;DHT22;66030;53.582;9.746;2023-02-05T06:28:29;2.60;99.90
21348;DHT22;66030;53.582;9.746;2023-02-05T06:30:56;2.60;99.90
21348;DHT22;66030;53.582;9.746;2023-02-05T06:33:24;2.60;99.90
21348;DHT22;66030;53.582;9.746;2023-02-05T06:35:53;2.50;99.90
21348;DHT22;66030;53.582;9.746;2023-02-05T06:38:21;2.40;99.90
21348;DHT22;66030;53.582;9.746;2023-02-05T06:40:49;2.50;99.90
21348;DHT22;66030;53.582;9.746;2023-02-05T06:43:17;2.40;99.90
21348;DHT22;66030;53.582;9.746;2023-02-05T06:45:45;2.40;99.90
21348;DHT22;66030;53.582;9.746;2023-02-05T06:48:13;2.50;99.90
21348;DHT22;66030;53.582;9.746;2023-02-05T06:50:40;2.60;99.90
21348;DHT22;66030;53.582;9.746;2023-02-05T06:53:09;2.50;99.90
21348;DHT22;66030;53.582;9.746;2023-02-05T06:55:37;2.40;99.90
21348;DHT22;66030;53.582;9.746;2023-02-05T06:58:05;2.60;99.90
21348;DHT22;66030;53.582;9.746;2023-02-05T07:00:33;2.50;99.90
21348;DHT22;66030;53.582;9.746;2023-02-05T07:03:01;2.60;99.90
21348;DHT22;66030;53.582;9.746;2023-02-05T07:05:29;2.60;99.90
21348;DHT22;66030;53.582;9.746;2023-02-05T07:07:57;2.60;99.90
21348;DHT22;66030;53.582;9.746;2023-02-05T07:10:28;2.60;99.90
21348;DHT22;66030;53.582;9.746;2023-02-05T07:12:56;2.60;99.90
21348;DHT22;66030;53.582;9.746;2023-02-05T07:15:23;2.50;99.90
21348;DHT22;66030;53.582;9.746;2023-02-05T07:17:51;2.50;99.90
21348;DHT22;66030;53.582;9.746;2023-02-05T07:20:19;2.50;99.90
21348;DHT22;66030;53.582;9.746;2023-02-05T07:22:49;2.50;99.90
21348;DHT22;66030;53.582;9.746;2023-02-05T07:25:17;2.50;99.90
21348;DHT22;66030;53.582;9.746;2023-02-05T07:27:46;2.40;99.90
21348;DHT22;66030;53.582;9.746;2023-02-05T07:30:15;2.40;99.90
21348;DHT22;66030;53.582;9.746;2023-02-05T07:32:42;2.50;99.90
21348;DHT22;66030;53.582;9.746;2023-02-05T07:35:10;2.30;99.90
21348;DHT22;66030;53.582;9.746;2023-02-05T07:37:38;2.20;99.90
21348;DHT22;66030;53.582;9.746;2023-02-05T07:40:07;2.40;99.90
21348;DHT22;66030;53.582;9.746;2023-02-05T07:42:35;2.40;99.90
21348;DHT22;66030;53.582;9.746;2023-02-05T07:45:05;2.40;99.90
21348;DHT22;66030;53.582;9.746;2023-02-05T07:47:33;2.50;99.90
21348;DHT22;66030;53.582;9.746;2023-02-05T07:50:00;2.50;99.90
21348;DHT22;66030;53.582;9.746;2023-02-05T07:52:30;2.60;99.90
21348;DHT22;66030;53.582;9.746;2023-02-05T07:54:58;2.70;99.90
21348;DHT22;66030;53.582;9.746;2023-02-05T07:57:26;2.70;99.90
21348;DHT22;66030;53.582;9.746;2023-02-05T07:59:54;2.90;99.90
21348;DHT22;66030;53.582;9.746;2023-02-05T08:02:23;2.90;99.90
21348;DHT22;66030;53.582;9.746;2023-02-05T08:04:51;3.10;99.90
21348;DHT22;66030;53.582;9.746;2023-02-05T08:07:18;3.10;99.90
21348;DHT22;66030;53.582;9.746;2023-02-05T08:09:46;3.00;99.90
21348;DHT22;66030;53.582;9.746;2023-02-05T08:12:14;3.10;99.90
21348;DHT22;66030;53.582;9.746;2023-02-05T08:14:42;3.20;99.90
21348;DHT22;66030;53.582;9.746;2023-02-05T08:17:10;3.30;99.90
21348;DHT22;66030;53.582;9.746;2023-02-05T08:19:39;3.20;99.90
21348;DHT22;66030;53.582;9.746;2023-02-05T08:22:07;3.30;99.90
21348;DHT22;66030;53.582;9.746;2023-02-05T08:24:35;3.30;99.90
21348;DHT22;66030;53.582;9.746;2023-02-05T08:27:04;3.40;99.90
21348;DHT22;66030;53.582;9.746;2023-02-05T08:29:31;3.50;99.90
21348;DHT22;66030;53.582;9.746;2023-02-05T08:31:59;3.50;99.90
21348;DHT22;66030;53.582;9.746;2023-02-05T08:34:27;3.50;99.90
21348;DHT22;66030;53.582;9.746;2023-02-05T08:36:56;3.50;99.90
21348;DHT22;66030;53.582;9.746;2023-02-05T08:39:25;3.30;99.90
21348;DHT22;66030;53.582;9.746;2023-02-05T08:41:53;3.20;99.90
21348;DHT22;66030;53.582;9.746;2023-02-05T08:44:22;3.20;99.90
21348;DHT22;66030;53.582;9.746;2023-02-05T08:46:50;3.50;99.90
21348;DHT22;66030;53.582;9.746;2023-02-05T08:49:18;3.30;99.90
21348;DHT22;66030;53.582;9.746;2023-02-05T08:51:46;3.40;99.90
21348;DHT22;66030;53.582;9.746;2023-02-05T08:54:15;3.50;99.90
21348;DHT22;66030;53.582;9.746;2023-02-05T08:56:44;3.60;99.90
21348;DHT22;66030;53.582;9.746;2023-02-05T08:59:12;3.50;99.90
21348;DHT22;66030;53.582;9.746;2023-02-05T09:01:41;3.70;99.90
21348;DHT22;66030;53.582;9.746;2023-02-05T09:04:12;3.80;99.90
21348;DHT22;66030;53.582;9.746;2023-02-05T09:06:41;3.70;99.90
21348;DHT22;66030;53.582;9.746;2023-02-05T09:09:09;3.90;99.90
21348;DHT22;66030;53.582;9.746;2023-02-05T09:11:39;3.90;99.90
21348;DHT22;66030;53.582;9.746;2023-02-05T09:14:09;3.80;99.90
21348;DHT22;66030;53.582;9.746;2023-02-05T09:16:37;3.90;99.90
21348;DHT22;66030;53.582;9.746;2023-02-05T09:19:05;4.00;99.90
21348;DHT22;66030;53.582;9.746;2023-02-05T09:21:33;4.00;99.90
21348;DHT22;66030;53.582;9.746;2023-02-05T09:24:01;3.90;99.90
21348;DHT22;66030;53.582;9.746;2023-02-05T09:26:29;4.00;99.90
21348;DHT22;66030;53.582;9.746;2023-02-05T09:28:58;3.90;99.90
21348;DHT22;66030;53.582;9.746;2023-02-05T09:31:26;3.90;99.90
21348;DHT22;66030;53.582;9.746;2023-02-05T09:33:54;3.90;99.90
21348;DHT22;66030;53.582;9.746;2023-02-05T09:36:23;3.80;99.90
21348;DHT22;66030;53.582;9.746;2023-02-05T09:38:50;3.70;99.90
21348;DHT22;66030;53.582;9.746;2023-02-05T09:41:44;3.80;99.90
21348;DHT22;66030;53.582;9.746;2023-02-05T09:44:20;3.80;99.90
21348;DHT22;66030;53.582;9.746;2023-02-05T09:46:58;3.90;99.90
21348;DHT22;66030;53.582;9.746;2023-02-05T09:49:31;4.00;99.90
21348;DHT22;66030;53.582;9.746;2023-02-05T09:52:03;4.00;99.90
21348;DHT22;66030;53.582;9.746;2023-02-05T09:54:34;4.10;99.90
21348;DHT22;66030;53.582;9.746;2023-02-05T09:57:08;4.10;99.90
21348;DHT22;66030;53.582;9.746;2023-02-05T09:59:41;4.00;99.90
21348;DHT22;66030;53.582;9.746;2023-02-05T10:02:20;4.20;99.90
21348;DHT22;66030;53.582;9.746;2023-02-05T10:04:50;4.30;99.90
21348;DHT22;66030;53.582;9.746;2023-02-05T10:07:34;4.20;99.90
21348;DHT22;66030;53.582;9.746;2023-02-05T10:10:21;3.80;99.90
21348;DHT22;66030;53.582;9.746;2023-02-05T10:13:22;3.90;99.90
21348;DHT22;66030;53.582;9.746;2023-02-05T10:16:15;4.00;99.90
21348;DHT22;66030;53.582;9.746;2023-02-05T10:19:08;4.30;99.90
21348;DHT22;66030;53.582;9.746;2023-02-05T10:21:56;4.20;99.90
21348;DHT22;66030;53.582;9.746;2023-02-05T10:24:44;4.10;99.90
21348;DHT22;66030;53.582;9.746;2023-02-05T10:27:19;4.30;99.90
21348;DHT22;66030;53.582;9.746;2023-02-05T10:29:54;4.20;99.90
21348;DHT22;66030;53.582;9.746;2023-02-05T10:32:34;4.30;99.90
21348;DHT22;66030;53.582;9.746;2023-02-05T10:35:16;4.40;99.90
21348;DHT22;66030;53.582;9.746;2023-02-05T10:37:48;4.40;99.90
21348;DHT22;66030;53.582;9.746;2023-02-05T10:40:21;4.20;99.90
21348;DHT22;66030;53.582;9.746;2023-02-05T10:42:52;4.10;99.90
21348;DHT22;66030;53.582;9.746;2023-02-05T10:45:22;4.40;99.90
21348;DHT22;66030;53.582;9.746;2023-02-05T10:48:10;4.60;99.90
21348;DHT22;66030;53.582;9.746;2023-02-05T10:50:50;4.60;99.90
21348;DHT22;66030;53.582;9.746;2023-02-05T10:53:23;4.60;99.90
21348;DHT22;66030;53.582;9.746;2023-02-05T10:55:51;4.60;99.90
21348;DHT22;66030;53.582;9.746;2023-02-05T10:58:39;4.60;99.90
21348;DHT22;66030;53.582;9.746;2023-02-05T11:01:12;4.70;99.90
21348;DHT22;66030;53.582;9.746;2023-02-05T11:03:52;4.70;99.90
21348;DHT22;66030;53.582;9.746;2023-02-05T11:06:21;4.40;99.90
21348;DHT22;66030;53.582;9.746;2023-02-05T11:08:50;4.50;99.90
21348;DHT22;66030;53.582;9.746;2023-02-05T11:11:21;4.30;99.90
21348;DHT22;66030;53.582;9.746;2023-02-05T11:13:52;4.30;99.90
21348;DHT22;66030;53.582;9.746;2023-02-05T11:16:21;4.40;99.90
21348;DHT22;66030;53.582;9.746;2023-02-05T11:18:59;4.40;99.90
21348;DHT22;66030;53.582;9.746;2023-02-05T11:21:50;4.60;99.90
21348;DHT22;66030;53.582;9.746;2023-02-05T11:24:23;4.80;99.90
21348;DHT22;66030;53.582;9.746;2023-02-05T11:27:12;4.60;99.90
21348;DHT22;66030;53.582;9.746;2023-02-05T11:29:46;4.70;99.90
21348;DHT22;66030;53.582;9.746;2023-02-05T11:32:18;4.70;99.90
21348;DHT22;66030;53.582;9.746;2023-02-05T11:34:47;4.70;99.90
21348;DHT22;66030;53.582;9.746;2023-02-05T11:37:16;4.60;99.90
21348;DHT22;66030;53.582;9.746;2023-02-05T11:39:46;4.50;99.90
21348;DHT22;66030;53.582;9.746;2023-02-05T11:42:21;4.70;99.90
21348;DHT22;66030;53.582;9.746;2023-02-05T11:44:51;4.90;99.90
21348;DHT22;66030;53.582;9.746;2023-02-05T11:47:25;5.00;99.90
21348;DHT22;66030;53.582;9.746;2023-02-05T11:49:55;5.10;99.90
21348;DHT22;66030;53.582;9.746;2023-02-05T11:52:27;5.10;99.90
21348;DHT22;66030;53.582;9.746;2023-02-05T11:54:55;5.20;99.90
21348;DHT22;66030;53.582;9.746;2023-02-05T11:57:30;5.20;99.90
21348;DHT22;66030;53.582;9.746;2023-02-05T12:00:13;5.20;99.90
21348;DHT22;66030;53.582;9.746;2023-02-05T12:02:45;5.00;99.90
21348;DHT22;66030;53.582;9.746;2023-02-05T12:05:20;4.80;99.90
21348;DHT22;66030;53.582;9.746;2023-02-05T12:07:54;4.90;99.90
21348;DHT22;66030;53.582;9.746;2023-02-05T12:10:29;5.10;99.90
21348;DHT22;66030;53.582;9.746;2023-02-05T12:13:05;5.30;99.90
21348;DHT22;66030;53.582;9.746;2023-02-05T12:15:40;5.30;99.90
21348;DHT22;66030;53.582;9.746;2023-02-05T12:18:18;5.40;99.90
21348;DHT22;66030;53.582;9.746;2023-02-05T12:20:53;5.40;99.90
21348;DHT22;66030;53.582;9.746;2023-02-05T12:23:35;5.30;99.90
21348;DHT22;66030;53.582;9.746;2023-02-05T12:26:31;5.10;99.90
21348;DHT22;66030;53.582;9.746;2023-02-05T12:29:08;5.00;99.90
21348;DHT22;66030;53.582;9.746;2023-02-05T12:31:50;5.10;99.90
21348;DHT22;66030;53.582;9.746;2023-02-05T12:34:23;5.10;99.90
21348;DHT22;66030;53.582;9.746;2023-02-05T12:37:11;5.20;99.90
21348;DHT22;66030;53.582;9.746;2023-02-05T12:39:45;5.10;99.90
21348;DHT22;66030;53.582;9.746;2023-02-05T12:42:35;5.00;99.90
21348;DHT22;66030;53.582;9.746;2023-02-05T12:45:18;5.20;99.90
21348;DHT22;66030;53.582;9.746;2023-02-05T12:48:03;5.00;99.90
21348;DHT22;66030;53.582;9.746;2023-02-05T12:50:52;5.00;99.90
21348;DHT22;66030;53.582;9.746;2023-02-05T12:53:30;5.10;99.90
21348;DHT22;66030;53.582;9.746;2023-02-05T12:56:16;4.80;99.90
21348;DHT22;66030;53.582;9.746;2023-02-05T12:58:51;4.90;99.90
21348;DHT22;66030;53.582;9.746;2023-02-05T13:01:34;5.00;99.90
21348;DHT22;66030;53.582;9.746;2023-02-05T13:04:05;5.10;99.90
21348;DHT22;66030;53.582;9.746;2023-02-05T13:06:37;5.10;99.90
21348;DHT22;66030;53.582;9.746;2023-02-05T13:09:13;5.10;99.90
21348;DHT22;66030;53.582;9.746;2023-02-05T13:11:48;5.20;99.90
21348;DHT22;66030;53.582;9.746;2023-02-05T13:14:20;5.30;99.90
21348;DHT22;66030;53.582;9.746;2023-02-05T13:16:51;5.30;99.90
21348;DHT22;66030;53.582;9.746;2023-02-05T13:19:24;5.30;99.90
21348;DHT22;66030;53.582;9.746;2023-02-05T13:21:56;5.30;99.90
21348;DHT22;66030;53.582;9.746;2023-02-05T13:24:48;5.20;99.90
21348;DHT22;66030;53.582;9.746;2023-02-05T13:27:39;5.30;99.90
21348;DHT22;66030;53.582;9.746;2023-02-05T13:30:30;5.30;99.90
21348;DHT22;66030;53.582;9.746;2023-02-05T13:33:03;5.20;99.90
21348;DHT22;66030;53.582;9.746;2023-02-05T13:35:38;5.20;99.90
21348;DHT22;66030;53.582;9.746;2023-02-05T13:38:21;5.20;99.90
21348;DHT22;66030;53.582;9.746;2023-02-05T13:41:11;5.20;99.90
21348;DHT22;66030;53.582;9.746;2023-02-05T13:46:59;5.30;99.90
21348;DHT22;66030;53.582;9.746;2023-02-05T13:52:58;5.30;99.90
21348;DHT22;66030;53.582;9.746;2023-02-05T13:55:38;5.40;99.90
21348;DHT22;66030;53.582;9.746;2023-02-05T13:58:13;5.50;99.90
21348;DHT22;66030;53.582;9.746;2023-02-05T14:00:52;5.40;99.90
21348;DHT22;66030;53.582;9.746;2023-02-05T14:03:28;5.50;99.90
21348;DHT22;66030;53.582;9.746;2023-02-05T14:06:16;5.40;99.90
21348;DHT22;66030;53.582;9.746;2023-02-05T14:08:48;5.40;99.90
21348;DHT22;66030;53.582;9.746;2023-02-05T14:11:17;5.50;99.90
21348;DHT22;66030;53.582;9.746;2023-02-05T14:16:47;5.50;99.90
21348;DHT22;66030;53.582;9.746;2023-02-05T14:19:19;5.40;99.90
21348;DHT22;66030;53.582;9.746;2023-02-05T14:22:00;5.50;99.90
21348;DHT22;66030;53.582;9.746;2023-02-05T14:24:44;5.20;99.90
21348;DHT22;66030;53.582;9.746;2023-02-05T14:27:23;5.40;99.90
21348;DHT22;66030;53.582;9.746;2023-02-05T14:33:29;5.60;99.90
21348;DHT22;66030;53.582;9.746;2023-02-05T14:39:20;5.60;99.90
21348;DHT22;66030;53.582;9.746;2023-02-05T14:41:53;5.50;99.90
21348;DHT22;66030;53.582;9.746;2023-02-05T14:44:27;5.50;99.90
21348;DHT22;66030;53.582;9.746;2023-02-05T14:47:14;5.50;99.90
21348;DHT22;66030;53.582;9.746;2023-02-05T14:49:46;5.40;99.90
21348;DHT22;66030;53.582;9.746;2023-02-05T14:52:26;5.30;99.90
21348;DHT22;66030;53.582;9.746;2023-02-05T14:54:57;5.20;99.90
21348;DHT22;66030;53.582;9.746;2023-02-05T14:57:32;5.30;99.90
21348;DHT22;66030;53.582;9.746;2023-02-05T15:00:06;5.20;99.90
21348;DHT22;66030;53.582;9.746;2023-02-05T15:05:53;5.20;99.90
21348;DHT22;66030;53.582;9.746;2023-02-05T15:08:37;5.10;99.90
21348;DHT22;66030;53.582;9.746;2023-02-05T15:11:13;5.10;99.90
21348;DHT22;66030;53.582;9.746;2023-02-05T15:13:41;5.20;99.90
21348;DHT22;66030;53.582;9.746;2023-02-05T15:16:18;5.20;99.90
21348;DHT22;66030;53.582;9.746;2023-02-05T15:18:48;5.20;99.90
21348;DHT22;66030;53.582;9.746;2023-02-05T15:21:23;5.20;99.90
21348;DHT22;66030;53.582;9.746;2023-02-05T15:23:56;5.20;99.90
21348;DHT22;66030;53.582;9.746;2023-02-05T15:26:31;5.10;99.90
21348;DHT22;66030;53.582;9.746;2023-02-05T15:29:03;5.20;99.90
21348;DHT22;66030;53.582;9.746;2023-02-05T15:31:36;5.30;99.90
21348;DHT22;66030;53.582;9.746;2023-02-05T15:37:16;5.40;99.90
21348;DHT22;66030;53.582;9.746;2023-02-05T15:39:49;5.40;99.90
21348;DHT22;66030;53.582;9.746;2023-02-05T15:42:20;5.30;99.90
21348;DHT22;66030;53.582;9.746;2023-02-05T15:44:49;5.40;99.90
21348;DHT22;66030;53.582;9.746;2023-02-05T15:47:19;5.40;99.90
21348;DHT22;66030;53.582;9.746;2023-02-05T15:49:49;5.30;99.90
21348;DHT22;66030;53.582;9.746;2023-02-05T15:52:21;5.10;99.90
21348;DHT22;66030;53.582;9.746;2023-02-05T15:54:52;5.10;99.90
21348;DHT22;66030;53.582;9.746;2023-02-05T15:57:24;5.10;99.90
21348;DHT22;66030;53.582;9.746;2023-02-05T15:59:53;5.20;99.90
21348;DHT22;66030;53.582;9.746;2023-02-05T16:02:24;5.10;99.90
21348;DHT22;66030;53.582;9.746;2023-02-05T16:04:54;5.00;99.90
21348;DHT22;66030;53.582;9.746;2023-02-05T16:07:26;5.00;99.90
21348;DHT22;66030;53.582;9.746;2023-02-05T16:09:56;5.00;99.90
21348;DHT22;66030;53.582;9.746;2023-02-05T16:12:24;4.90;99.90
21348;DHT22;66030;53.582;9.746;2023-02-05T16:14:57;4.90;99.90
21348;DHT22;66030;53.582;9.746;2023-02-05T16:17:27;4.90;99.90
21348;DHT22;66030;53.582;9.746;2023-02-05T16:20:15;4.90;99.90
21348;DHT22;66030;53.582;9.746;2023-02-05T16:22:50;4.90;99.90
21348;DHT22;66030;53.582;9.746;2023-02-05T16:25:34;4.80;99.90
21348;DHT22;66030;53.582;9.746;2023-02-05T16:28:06;4.60;99.90
21348;DHT22;66030;53.582;9.746;2023-02-05T16:30:41;4.70;99.90
21348;DHT22;66030;53.582;9.746;2023-02-05T16:33:19;4.80;99.90
21348;DHT22;66030;53.582;9.746;2023-02-05T16:35:48;4.70;99.90
21348;DHT22;66030;53.582;9.746;2023-02-05T16:38:19;4.70;99.90
21348;DHT22;66030;53.582;9.746;2023-02-05T16:40:51;4.70;99.90
21348;DHT22;66030;53.582;9.746;2023-02-05T16:43:27;4.80;99.90
21348;DHT22;66030;53.582;9.746;2023-02-05T16:49:01;4.90;99.90